createdAt,value
2023-01-20T00:00:25.197Z,4.89
2023-01-20T00:02:51.587Z,4.89
2023-01-20T00:05:17.951Z,4.91
2023-01-20T00:07:44.326Z,4.92
2023-01-20T00:10:10.683Z,4.89
2023-01-20T00:12:37.031Z,4.91
2023-01-20T00:15:03.374Z,4.91
2023-01-20T00:17:29.694Z,4.89
2023-01-20T00:19:56.058Z,4.91
2023-01-20T00:22:22.636Z,4.92
2023-01-20T00:24:48.986Z,4.89
2023-01-20T00:27:15.566Z,4.92
2023-01-20T00:29:41.901Z,4.88
2023-01-20T00:32:08.229Z,4.91
2023-01-20T00:34:34.548Z,4.89
2023-01-20T00:37:01.118Z,4.91
2023-01-20T00:39:27.473Z,4.88
2023-01-20T00:41:53.813Z,4.91
2023-01-20T00:44:20.166Z,4.91
2023-01-20T00:46:46.581Z,4.92
2023-01-20T00:49:12.966Z,4.89
2023-01-20T00:51:39.292Z,4.91
2023-01-20T00:54:05.635Z,4.89
2023-01-20T00:56:31.970Z,4.89
2023-01-20T00:58:58.313Z,4.89
2023-01-20T01:01:25.020Z,4.91
2023-01-20T01:03:51.365Z,4.92
2023-01-20T01:06:17.707Z,4.91
2023-01-20T01:08:44.128Z,4.89
2023-01-20T01:11:10.483Z,4.89
2023-01-20T01:13:36.840Z,4.91
2023-01-20T01:16:03.260Z,4.89
2023-01-20T01:18:29.878Z,4.89
2023-01-20T01:20:56.253Z,4.89
2023-01-20T01:23:22.601Z,4.89
2023-01-20T01:25:49.155Z,4.91
2023-01-20T01:28:15.721Z,4.89
2023-01-20T01:30:42.112Z,4.91
2023-01-20T01:33:08.504Z,4.89
2023-01-20T01:35:34.853Z,4.91
2023-01-20T01:38:01.205Z,4.92
2023-01-20T01:40:27.565Z,4.92
2023-01-20T01:42:53.891Z,4.91
2023-01-20T01:45:20.248Z,4.91
2023-01-20T01:47:46.619Z,4.89
2023-01-20T01:50:12.959Z,4.91
2023-01-20T01:52:39.336Z,4.91
2023-01-20T01:55:05.660Z,4.89
2023-01-20T01:57:32.029Z,4.91
2023-01-20T01:59:58.369Z,4.91
2023-01-20T02:02:24.757Z,4.92
2023-01-20T02:04:51.154Z,4.91
2023-01-20T02:07:17.627Z,4.91
2023-01-20T02:09:43.994Z,4.92
2023-01-20T02:12:10.446Z,4.89
2023-01-20T02:14:36.800Z,4.89
2023-01-20T02:17:03.164Z,4.91
2023-01-20T02:19:29.539Z,4.91
2023-01-20T02:21:55.898Z,4.91
2023-01-20T02:24:22.226Z,4.89
2023-01-20T02:26:48.906Z,4.89
2023-01-20T02:29:15.251Z,4.89
2023-01-20T02:31:41.943Z,4.91
2023-01-20T02:34:08.307Z,4.91
2023-01-20T02:36:34.682Z,4.89
2023-01-20T02:39:01.046Z,4.89
2023-01-20T02:41:27.957Z,4.89
2023-01-20T02:43:54.307Z,4.91
2023-01-20T02:46:20.677Z,4.89
2023-01-20T02:48:47.016Z,4.89
2023-01-20T02:51:13.402Z,4.88
2023-01-20T02:53:39.802Z,4.91
2023-01-20T02:56:06.163Z,4.89
2023-01-20T02:58:32.500Z,4.89
2023-01-20T03:00:58.861Z,4.88
2023-01-20T03:03:25.237Z,4.88
2023-01-20T03:05:51.722Z,4.89
2023-01-20T03:08:18.122Z,4.89
2023-01-20T03:10:44.683Z,4.89
2023-01-20T03:13:11.050Z,4.92
2023-01-20T03:15:37.414Z,4.92
2023-01-20T03:18:03.793Z,4.87
2023-01-20T03:20:30.112Z,4.89
2023-01-20T03:22:56.433Z,4.91
2023-01-20T03:25:22.769Z,4.91
2023-01-20T03:27:49.126Z,4.91
2023-01-20T03:30:15.468Z,4.92
2023-01-20T03:32:41.823Z,4.92
2023-01-20T03:35:08.210Z,4.87
2023-01-20T03:37:34.556Z,4.88
2023-01-20T03:40:00.960Z,4.88
2023-01-20T03:42:27.326Z,4.91
2023-01-20T03:44:53.700Z,4.88
2023-01-20T03:47:20.265Z,4.91
2023-01-20T03:49:46.635Z,4.89
2023-01-20T03:52:13.019Z,4.91
2023-01-20T03:54:39.613Z,4.89
2023-01-20T03:57:05.964Z,4.87
2023-01-20T03:59:32.326Z,4.89
2023-01-20T04:01:58.872Z,4.89
2023-01-20T04:04:25.301Z,4.92
2023-01-20T04:06:51.670Z,4.88
2023-01-20T04:09:18.039Z,4.89
2023-01-20T04:11:44.384Z,4.91
2023-01-20T04:14:10.788Z,4.89
2023-01-20T04:16:37.369Z,4.87
2023-01-20T04:19:03.925Z,4.88
2023-01-20T04:21:30.288Z,4.88
2023-01-20T04:23:56.628Z,4.87
2023-01-20T04:26:22.976Z,4.88
2023-01-20T04:28:49.318Z,4.87
2023-01-20T04:31:29.480Z,4.88
2023-01-20T04:33:57.048Z,4.87
2023-01-20T04:36:23.410Z,4.87
2023-01-20T04:38:49.768Z,4.85
2023-01-20T04:41:16.137Z,4.89
2023-01-20T04:43:42.431Z,4.89
2023-01-20T04:46:09.000Z,4.87
2023-01-20T04:48:35.374Z,4.84
2023-01-20T04:51:01.728Z,4.87
2023-01-20T04:53:28.054Z,4.85
2023-01-20T04:55:54.414Z,4.88
2023-01-20T04:58:20.765Z,4.88
2023-01-20T05:00:47.118Z,4.84
2023-01-20T05:03:13.454Z,4.82
2023-01-20T05:05:39.787Z,4.85
2023-01-20T05:08:06.143Z,4.85
2023-01-20T05:10:32.500Z,4.84
2023-01-20T05:12:58.860Z,4.84
2023-01-20T05:15:25.189Z,4.82
2023-01-20T05:17:51.529Z,4.82
2023-01-20T05:20:17.961Z,4.84
2023-01-20T05:22:44.299Z,4.84
2023-01-20T05:25:10.651Z,4.85
2023-01-20T05:27:37.199Z,4.81
2023-01-20T05:30:03.557Z,4.82
2023-01-20T05:32:29.937Z,4.84
2023-01-20T05:34:56.302Z,4.84
2023-01-20T05:37:22.677Z,4.82
2023-01-20T05:39:49.038Z,4.82
2023-01-20T05:42:15.390Z,4.82
2023-01-20T05:44:41.714Z,4.82
2023-01-20T05:47:08.074Z,4.80
2023-01-20T05:49:34.400Z,4.80
2023-01-20T05:52:00.747Z,4.78
2023-01-20T05:54:27.081Z,4.80
2023-01-20T05:56:53.823Z,4.78
2023-01-20T05:59:20.187Z,4.80
2023-01-20T06:01:46.558Z,4.80
2023-01-20T06:04:12.922Z,4.77
2023-01-20T06:06:39.260Z,4.78
2023-01-20T06:09:05.602Z,4.78
2023-01-20T06:11:31.971Z,4.78
2023-01-20T06:13:58.309Z,4.75
2023-01-20T06:16:24.662Z,4.81
2023-01-20T06:18:51.061Z,4.77
2023-01-20T06:21:17.440Z,4.75
2023-01-20T06:23:44.032Z,4.74
2023-01-20T06:26:10.393Z,4.77
2023-01-20T06:28:36.731Z,4.78
2023-01-20T06:31:03.234Z,4.74
2023-01-20T06:33:29.679Z,4.74
2023-01-20T06:35:56.035Z,4.74
2023-01-20T06:38:22.422Z,4.74
2023-01-20T06:40:48.965Z,4.75
2023-01-20T06:43:15.325Z,4.72
2023-01-20T06:45:41.688Z,4.72
2023-01-20T06:48:08.045Z,4.74
2023-01-20T06:50:34.349Z,4.74
2023-01-20T06:53:00.685Z,4.75
2023-01-20T06:55:27.005Z,4.72
2023-01-20T06:57:53.359Z,4.74
2023-01-20T07:00:19.705Z,4.74
2023-01-20T07:02:46.114Z,4.72
2023-01-20T07:05:12.865Z,4.72
2023-01-20T07:07:39.374Z,4.74
2023-01-20T07:10:05.727Z,4.74
2023-01-20T07:12:32.077Z,4.71
2023-01-20T07:14:58.640Z,4.72
2023-01-20T07:17:25.197Z,4.74
2023-01-20T07:19:51.536Z,4.74
2023-01-20T07:22:17.874Z,4.72
2023-01-20T07:24:44.216Z,4.71
2023-01-20T07:27:10.559Z,4.74
2023-01-20T07:29:36.908Z,4.71
2023-01-20T07:32:03.278Z,4.71
2023-01-20T07:34:29.841Z,4.71
2023-01-20T07:36:56.218Z,4.70
2023-01-20T07:39:22.646Z,4.68
2023-01-20T07:41:48.999Z,4.70
2023-01-20T07:44:15.362Z,4.72
2023-01-20T07:46:41.703Z,4.75
2023-01-20T07:49:09.635Z,4.81
2023-01-20T07:51:37.655Z,4.88
2023-01-20T07:54:04.003Z,4.95
2023-01-20T07:56:30.373Z,5.02
2023-01-20T07:58:56.744Z,5.13
2023-01-20T08:01:23.204Z,5.16
2023-01-20T08:03:49.616Z,5.22
2023-01-20T08:06:16.028Z,5.26
2023-01-20T08:08:42.430Z,5.32
2023-01-20T08:11:08.813Z,5.36
2023-01-20T08:13:35.236Z,5.42
2023-01-20T08:16:01.624Z,5.44
2023-01-20T08:18:28.677Z,5.51
2023-01-20T08:20:55.030Z,5.50
2023-01-20T08:23:21.405Z,5.49
2023-01-20T08:25:47.786Z,5.47
2023-01-20T08:28:14.352Z,5.42
2023-01-20T08:30:40.789Z,5.38
2023-01-20T08:33:07.420Z,5.33
2023-01-20T08:35:33.768Z,5.30
2023-01-20T08:38:00.094Z,5.25
2023-01-20T08:40:26.450Z,5.25
2023-01-20T08:42:52.809Z,5.22
2023-01-20T08:45:19.137Z,5.19
2023-01-20T08:47:45.491Z,5.15
2023-01-20T08:50:12.054Z,5.15
2023-01-20T08:52:38.371Z,5.11
2023-01-20T08:55:04.727Z,5.08
2023-01-20T08:57:31.101Z,5.08
2023-01-20T08:59:57.471Z,5.04
2023-01-20T09:02:23.880Z,5.02
2023-01-20T09:04:50.271Z,5.02
2023-01-20T09:07:16.645Z,5.02
2023-01-20T09:09:42.989Z,4.99
2023-01-20T09:12:09.553Z,5.01
2023-01-20T09:14:35.891Z,4.98
2023-01-20T09:17:02.240Z,4.98
2023-01-20T09:19:28.577Z,4.95
2023-01-20T09:21:54.925Z,4.95
2023-01-20T09:24:21.258Z,4.92
2023-01-20T09:26:47.613Z,4.93
2023-01-20T09:29:14.197Z,4.95
2023-01-20T09:31:40.727Z,4.89
2023-01-20T09:34:07.146Z,4.89
2023-01-20T09:36:33.715Z,4.89
2023-01-20T09:39:00.103Z,4.88
2023-01-20T09:41:26.442Z,4.88
2023-01-20T09:43:52.777Z,4.89
2023-01-20T09:46:19.223Z,4.89
2023-01-20T09:48:45.867Z,4.88
2023-01-20T09:51:12.221Z,4.88
2023-01-20T09:53:38.771Z,4.88
2023-01-20T09:56:07.041Z,5.02
2023-01-20T09:58:34.980Z,4.95
2023-01-20T10:01:01.576Z,4.88
2023-01-20T10:03:27.930Z,4.80
2023-01-20T10:05:54.263Z,4.71
2023-01-20T10:08:20.579Z,4.84
2023-01-20T10:10:46.902Z,4.98
2023-01-20T10:13:13.228Z,4.99
2023-01-20T10:15:39.591Z,5.02
2023-01-20T10:18:06.004Z,4.91
2023-01-20T10:20:32.429Z,4.92
2023-01-20T10:22:59.035Z,4.99
2023-01-20T10:25:25.368Z,5.02
2023-01-20T10:27:51.711Z,5.02
2023-01-20T10:30:18.298Z,4.99
2023-01-20T10:32:44.729Z,4.95
2023-01-20T10:35:11.140Z,4.93
2023-01-20T10:37:37.687Z,4.93
2023-01-20T10:40:04.048Z,4.93
2023-01-20T10:42:30.408Z,4.93
2023-01-20T10:44:56.963Z,4.89
2023-01-20T10:47:23.308Z,4.92
2023-01-20T10:49:49.649Z,4.91
2023-01-20T10:52:15.989Z,4.92
2023-01-20T10:54:42.546Z,4.91
2023-01-20T10:57:08.869Z,4.91
2023-01-20T10:59:35.243Z,4.91
2023-01-20T11:02:11.515Z,4.91
2023-01-20T11:04:39.040Z,4.92
2023-01-20T11:07:05.376Z,4.91
2023-01-20T11:09:31.754Z,4.91
2023-01-20T11:11:58.305Z,4.91
2023-01-20T11:14:26.138Z,4.89
2023-01-20T11:16:52.791Z,4.89
2023-01-20T11:19:19.144Z,4.91
2023-01-20T11:21:45.728Z,4.92
2023-01-20T11:24:12.049Z,4.89
2023-01-20T11:26:38.593Z,4.92
2023-01-20T11:29:04.948Z,4.92
2023-01-20T11:31:31.341Z,4.92
2023-01-20T11:33:57.701Z,4.88
2023-01-20T11:36:24.104Z,4.93
2023-01-20T11:38:50.473Z,4.92
2023-01-20T11:41:16.830Z,4.91
2023-01-20T11:43:43.377Z,4.93
2023-01-20T11:46:09.733Z,4.93
2023-01-20T11:48:36.343Z,4.92
2023-01-20T11:51:02.681Z,4.92
2023-01-20T11:53:29.223Z,4.91
2023-01-20T11:55:55.578Z,4.92
2023-01-20T11:58:21.914Z,4.92
2023-01-20T12:00:48.282Z,4.93
2023-01-20T12:03:14.678Z,4.93
2023-01-20T12:05:41.059Z,4.89
2023-01-20T12:08:07.421Z,4.91
2023-01-20T12:10:33.800Z,4.92
2023-01-20T12:13:00.152Z,4.93
2023-01-20T12:15:26.505Z,4.92
2023-01-20T12:17:52.840Z,4.93
2023-01-20T12:20:19.195Z,4.92
2023-01-20T12:22:45.753Z,4.95
2023-01-20T12:25:12.085Z,4.95
2023-01-20T12:27:38.409Z,4.95
2023-01-20T12:30:04.746Z,4.95
2023-01-20T12:32:31.066Z,4.95
2023-01-20T12:34:57.435Z,4.92
2023-01-20T12:37:23.778Z,4.95
2023-01-20T12:39:50.161Z,4.95
2023-01-20T12:42:16.714Z,4.96
2023-01-20T12:44:43.052Z,4.95
2023-01-20T12:47:09.484Z,4.95
2023-01-20T12:49:35.835Z,4.96
2023-01-20T12:52:02.412Z,4.98
2023-01-20T12:54:39.335Z,4.93
2023-01-20T12:57:14.211Z,4.95
2023-01-20T12:59:40.558Z,4.95
2023-01-20T13:02:06.891Z,4.98
2023-01-20T13:04:33.274Z,4.93
2023-01-20T13:06:59.648Z,4.95
2023-01-20T13:09:26.197Z,4.93
2023-01-20T13:11:52.548Z,4.93
2023-01-20T13:14:18.910Z,4.93
2023-01-20T13:16:45.654Z,4.95
2023-01-20T13:19:12.037Z,4.92
2023-01-20T13:21:38.579Z,4.95
2023-01-20T13:24:04.927Z,4.92
2023-01-20T13:26:31.290Z,4.92
2023-01-20T13:28:57.872Z,4.92
2023-01-20T13:31:24.311Z,4.92
2023-01-20T13:33:50.718Z,4.93
2023-01-20T13:36:17.521Z,4.92
2023-01-20T13:38:43.875Z,4.93
2023-01-20T13:41:10.418Z,4.92
2023-01-20T13:43:36.754Z,4.92
2023-01-20T13:46:03.167Z,4.93
2023-01-20T13:48:29.561Z,4.93
2023-01-20T13:50:55.927Z,4.95
2023-01-20T13:53:22.296Z,4.95
2023-01-20T13:55:48.678Z,4.95
2023-01-20T13:58:15.231Z,4.92
2023-01-20T14:00:41.795Z,4.93
2023-01-20T14:03:08.150Z,4.93
2023-01-20T14:05:34.710Z,4.93
2023-01-20T14:08:01.067Z,4.95
2023-01-20T14:10:27.413Z,4.93
2023-01-20T14:12:53.776Z,4.95
2023-01-20T14:15:20.147Z,4.95
2023-01-20T14:17:46.518Z,4.96
2023-01-20T14:20:12.869Z,4.93
2023-01-20T14:22:39.236Z,4.95
2023-01-20T14:25:05.585Z,4.96
2023-01-20T14:27:31.983Z,4.96
2023-01-20T14:29:58.367Z,4.95
2023-01-20T14:32:24.954Z,4.96
2023-01-20T14:34:51.289Z,4.95
2023-01-20T14:37:17.615Z,4.95
2023-01-20T14:39:43.944Z,4.95
2023-01-20T14:42:10.300Z,4.95
2023-01-20T14:44:36.660Z,4.96
2023-01-20T14:47:02.993Z,4.93
2023-01-20T14:49:29.346Z,4.93
2023-01-20T14:51:55.925Z,4.95
2023-01-20T14:54:22.257Z,4.96
2023-01-20T14:56:48.612Z,4.95
2023-01-20T14:59:14.967Z,4.96
2023-01-20T15:01:41.587Z,4.92
2023-01-20T15:04:07.969Z,4.96
2023-01-20T15:09:21.904Z,4.93
2023-01-20T15:11:48.291Z,4.93
2023-01-20T15:14:14.672Z,4.95
2023-01-20T15:16:41.241Z,4.95
2023-01-20T15:19:07.582Z,4.96
2023-01-20T15:21:34.123Z,4.93
2023-01-20T15:24:00.454Z,4.95
2023-01-20T15:26:26.816Z,4.95
2023-01-20T15:28:53.155Z,4.96
2023-01-20T15:31:19.836Z,4.96
2023-01-20T15:33:46.350Z,4.96
2023-01-20T15:36:12.698Z,4.95
2023-01-20T15:38:39.046Z,4.95
2023-01-20T15:41:05.613Z,4.96
2023-01-20T15:43:31.972Z,4.95
2023-01-20T15:45:58.311Z,4.95
2023-01-20T15:48:24.709Z,4.98
2023-01-20T15:50:51.155Z,4.95
2023-01-20T15:53:17.551Z,4.98
2023-01-20T15:55:44.086Z,4.98
2023-01-20T15:58:10.411Z,4.98
2023-01-20T16:00:36.743Z,4.95
2023-01-20T16:03:03.069Z,4.98
2023-01-20T16:05:29.448Z,4.95
2023-01-20T16:07:55.779Z,4.95
2023-01-20T16:10:22.110Z,4.98
2023-01-20T16:12:48.456Z,4.98
2023-01-20T16:15:14.797Z,4.95
2023-01-20T16:17:41.159Z,4.96
2023-01-20T16:20:07.501Z,4.96
2023-01-20T16:22:37.418Z,4.95
2023-01-20T16:25:03.756Z,4.93
2023-01-20T16:27:30.106Z,4.98
2023-01-20T16:29:56.451Z,4.93
2023-01-20T16:32:23.043Z,4.95
2023-01-20T16:34:49.415Z,4.96
2023-01-20T16:37:15.803Z,4.93
2023-01-20T16:39:43.359Z,4.95
2023-01-20T16:42:09.724Z,4.98
2023-01-20T16:44:36.046Z,4.93
2023-01-20T16:47:02.380Z,4.93
2023-01-20T16:49:28.721Z,4.92
2023-01-20T16:51:55.072Z,4.95
2023-01-20T16:54:22.434Z,4.93
2023-01-20T16:56:48.748Z,4.92
2023-01-20T16:59:15.301Z,4.92
2023-01-20T17:01:42.435Z,4.91
2023-01-20T17:04:08.776Z,4.91
2023-01-20T17:06:35.329Z,4.93
2023-01-20T17:09:01.900Z,4.88
2023-01-20T17:11:28.282Z,4.89
2023-01-20T17:13:54.629Z,4.88
2023-01-20T17:16:21.048Z,4.91
2023-01-20T17:18:47.408Z,4.91
2023-01-20T17:21:13.756Z,4.88
2023-01-20T17:23:40.323Z,4.88
2023-01-20T17:26:06.684Z,4.91
2023-01-20T17:28:33.035Z,4.87
2023-01-20T17:30:59.407Z,4.85
2023-01-20T17:33:25.987Z,4.87
2023-01-20T17:35:52.349Z,4.87
2023-01-20T17:38:18.698Z,4.87
2023-01-20T17:40:45.050Z,4.85
2023-01-20T17:43:11.374Z,4.85
2023-01-20T17:45:37.755Z,4.85
2023-01-20T17:48:04.706Z,4.84
2023-01-20T17:50:31.184Z,4.82
2023-01-20T17:52:57.523Z,4.84
2023-01-20T17:55:24.054Z,4.84
2023-01-20T17:57:50.417Z,4.80
2023-01-20T18:00:17.050Z,4.82
2023-01-20T18:02:43.584Z,4.81
2023-01-20T18:05:09.972Z,4.82
2023-01-20T18:07:36.322Z,4.80
2023-01-20T18:10:02.664Z,4.81
2023-01-20T18:12:29.027Z,4.82
2023-01-20T18:14:55.414Z,4.78
2023-01-20T18:17:21.765Z,4.80
2023-01-20T18:19:48.122Z,4.80
2023-01-20T18:22:14.507Z,4.78
2023-01-20T18:24:40.861Z,4.78
2023-01-20T18:27:07.271Z,4.75
2023-01-20T18:29:33.621Z,4.77
2023-01-20T18:32:00.045Z,4.80
2023-01-20T18:34:26.501Z,4.78
2023-01-20T18:36:52.831Z,4.74
2023-01-20T18:39:19.234Z,4.74
2023-01-20T18:41:45.599Z,4.72
2023-01-20T18:44:12.185Z,4.74
2023-01-20T18:46:38.740Z,4.74
2023-01-20T18:49:06.153Z,4.74
2023-01-20T18:51:33.792Z,4.77
2023-01-20T18:54:00.151Z,4.74
2023-01-20T18:56:26.712Z,4.72
2023-01-20T18:58:53.077Z,4.71
2023-01-20T19:01:19.695Z,4.72
2023-01-20T19:03:46.123Z,4.71
2023-01-20T19:06:12.715Z,4.74
2023-01-20T19:08:39.097Z,4.74
2023-01-20T19:11:05.455Z,4.72
2023-01-20T19:13:31.826Z,4.71
2023-01-20T19:15:58.290Z,4.71
2023-01-20T19:18:24.671Z,4.70
2023-01-20T19:20:51.014Z,4.68
2023-01-20T19:23:17.601Z,4.71
2023-01-20T19:25:44.228Z,4.65
2023-01-20T19:28:10.597Z,4.67
2023-01-20T19:30:37.189Z,4.68
2023-01-20T19:33:03.594Z,4.65
2023-01-20T19:35:29.944Z,4.64
2023-01-20T19:37:56.277Z,4.68
2023-01-20T19:40:22.680Z,4.65
2023-01-20T19:42:49.029Z,4.65
2023-01-20T19:45:15.347Z,4.65
2023-01-20T19:47:41.676Z,4.63
2023-01-20T19:50:08.055Z,4.63
2023-01-20T19:52:34.402Z,4.64
2023-01-20T19:55:00.779Z,4.64
2023-01-20T19:57:27.375Z,4.64
2023-01-20T19:59:53.742Z,4.64
2023-01-20T20:02:20.111Z,4.63
2023-01-20T20:04:46.491Z,4.61
2023-01-20T20:07:12.838Z,4.61
2023-01-20T20:09:39.175Z,4.60
2023-01-20T20:12:05.751Z,4.57
2023-01-20T20:14:32.109Z,4.61
2023-01-20T20:16:58.472Z,4.58
2023-01-20T20:19:24.803Z,4.61
2023-01-20T20:21:51.168Z,4.60
2023-01-20T20:24:17.513Z,4.61
2023-01-20T20:26:43.901Z,4.60
2023-01-20T20:29:10.292Z,4.60
2023-01-20T20:31:36.832Z,4.58
2023-01-20T20:34:03.454Z,4.56
2023-01-20T20:36:29.802Z,4.54
2023-01-20T20:38:56.122Z,4.58
2023-01-20T20:41:22.460Z,4.54
2023-01-20T20:43:48.792Z,4.57
2023-01-20T20:46:15.172Z,4.57
2023-01-20T20:48:41.569Z,4.58
2023-01-20T20:51:08.215Z,4.57
2023-01-20T20:53:34.577Z,4.58
2023-01-20T20:56:00.950Z,4.56
2023-01-20T20:58:27.319Z,4.54
2023-01-20T21:00:53.700Z,4.54
2023-01-20T21:03:22.879Z,4.56
2023-01-20T21:05:49.228Z,4.51
2023-01-20T21:08:15.592Z,4.53
2023-01-20T21:10:41.946Z,4.54
2023-01-20T21:13:08.299Z,4.51
2023-01-20T21:15:34.636Z,4.51
2023-01-20T21:18:00.967Z,4.53
2023-01-20T21:20:27.315Z,4.54
2023-01-20T21:22:53.680Z,4.51
2023-01-20T21:25:20.044Z,4.51
2023-01-20T21:27:46.375Z,4.53
2023-01-20T21:30:12.745Z,4.50
2023-01-20T21:32:39.313Z,4.50
2023-01-20T21:35:05.653Z,4.51
2023-01-20T21:37:32.003Z,4.49
2023-01-20T21:39:58.330Z,4.51
2023-01-20T21:42:24.697Z,4.49
2023-01-20T21:44:51.044Z,4.49
2023-01-20T21:47:17.406Z,4.49
2023-01-20T21:49:43.746Z,4.47
2023-01-20T21:52:10.326Z,4.46
2023-01-20T21:54:36.664Z,4.51
2023-01-20T21:57:03.020Z,4.46
2023-01-20T21:59:29.395Z,4.47
2023-01-20T22:01:55.819Z,4.44
2023-01-20T22:04:22.227Z,4.46
2023-01-20T22:06:48.587Z,4.46
2023-01-20T22:09:14.961Z,4.44
2023-01-20T22:11:41.538Z,4.44
2023-01-20T22:14:07.891Z,4.47
2023-01-20T22:16:34.312Z,4.46
2023-01-20T22:19:00.675Z,4.47
2023-01-20T22:21:27.223Z,4.43
2023-01-20T22:23:53.583Z,4.43
2023-01-20T22:26:19.935Z,4.43
2023-01-20T22:28:46.513Z,4.43
2023-01-20T22:31:12.918Z,4.43
2023-01-20T22:33:39.522Z,4.43
2023-01-20T22:36:05.869Z,4.42
2023-01-20T22:38:32.226Z,4.44
2023-01-20T22:40:58.792Z,4.42
2023-01-20T22:43:25.133Z,4.42
2023-01-20T22:45:51.475Z,4.40
2023-01-20T22:48:17.836Z,4.37
2023-01-20T22:50:44.232Z,4.40
2023-01-20T22:53:10.572Z,4.39
2023-01-20T22:55:38.858Z,4.37
2023-01-20T22:58:07.887Z,4.37
2023-01-20T23:00:34.286Z,4.37
2023-01-20T23:03:00.663Z,4.36
2023-01-20T23:05:27.034Z,4.37
2023-01-20T23:07:53.391Z,4.37
2023-01-20T23:10:19.745Z,4.36
2023-01-20T23:12:46.084Z,4.36
2023-01-20T23:15:12.427Z,4.34
2023-01-20T23:17:38.753Z,4.36
2023-01-20T23:20:05.151Z,4.39
2023-01-20T23:22:31.542Z,4.33
2023-01-20T23:24:57.889Z,4.32
2023-01-20T23:27:24.254Z,4.33
2023-01-20T23:29:50.613Z,4.33
2023-01-20T23:32:16.944Z,4.33
2023-01-20T23:34:43.266Z,4.32
2023-01-20T23:37:09.805Z,4.32
2023-01-20T23:39:36.372Z,4.29
2023-01-20T23:42:02.731Z,4.32
2023-01-20T23:44:29.061Z,4.30
2023-01-20T23:46:55.400Z,4.29
2023-01-20T23:49:22.791Z,4.26
2023-01-20T23:51:49.286Z,4.29
2023-01-20T23:54:15.655Z,4.28
2023-01-20T23:56:42.023Z,4.28
2023-01-20T23:59:08.354Z,4.28
